createdAt,value
2022-12-31T00:01:49.242Z,8.10
2022-12-31T00:04:17.282Z,8.10
2022-12-31T00:06:46.037Z,8.10
2022-12-31T00:09:15.086Z,8.10
2022-12-31T00:11:42.849Z,8.00
2022-12-31T00:14:10.613Z,8.00
2022-12-31T00:16:40.492Z,8.00
2022-12-31T00:19:10.809Z,7.90
2022-12-31T00:21:39.383Z,8.00
2022-12-31T00:24:08.258Z,7.90
2022-12-31T00:26:37.713Z,8.00
2022-12-31T00:29:06.656Z,8.00
2022-12-31T00:31:36.358Z,8.00
2022-12-31T00:34:05.152Z,8.10
2022-12-31T00:36:34.777Z,8.10
2022-12-31T00:39:03.899Z,8.10
2022-12-31T00:41:32.656Z,8.00
2022-12-31T00:44:02.038Z,8.00
2022-12-31T00:46:30.632Z,8.10
2022-12-31T00:48:58.377Z,8.10
2022-12-31T00:51:27.578Z,8.00
2022-12-31T00:53:56.117Z,8.00
2022-12-31T00:56:25.491Z,8.00
2022-12-31T00:58:53.475Z,8.10
2022-12-31T01:01:24.204Z,8.20
2022-12-31T01:03:53.807Z,8.30
2022-12-31T01:06:22.203Z,8.30
2022-12-31T01:08:51.115Z,8.40
2022-12-31T01:11:19.010Z,8.60
2022-12-31T01:13:47.623Z,8.80
2022-12-31T01:16:15.639Z,8.80
2022-12-31T01:18:44.743Z,8.90
2022-12-31T01:21:13.783Z,9.00
2022-12-31T01:23:42.258Z,8.90
2022-12-31T01:26:12.854Z,9.00
2022-12-31T01:28:40.847Z,9.00
2022-12-31T01:31:10.473Z,9.10
2022-12-31T01:33:38.712Z,9.10
2022-12-31T01:36:11.178Z,9.20
2022-12-31T01:38:39.299Z,9.20
2022-12-31T01:41:07.373Z,9.20
2022-12-31T01:43:49.907Z,9.30
2022-12-31T01:46:29.508Z,9.40
2022-12-31T01:49:02.805Z,9.40
2022-12-31T01:51:35.420Z,9.50
2022-12-31T01:54:04.846Z,9.40
2022-12-31T01:56:33.481Z,9.40
2022-12-31T01:59:01.630Z,9.50
2022-12-31T02:01:33.422Z,9.50
2022-12-31T02:04:05.569Z,9.60
2022-12-31T02:06:38.385Z,9.60
2022-12-31T02:09:06.287Z,9.60
2022-12-31T02:11:37.862Z,9.60
2022-12-31T02:14:09.107Z,9.50
2022-12-31T02:16:43.404Z,9.60
2022-12-31T02:19:47.127Z,9.60
2022-12-31T02:22:28.896Z,9.60
2022-12-31T02:25:17.946Z,9.70
2022-12-31T02:27:55.148Z,9.70
2022-12-31T02:30:25.790Z,9.70
2022-12-31T02:33:05.567Z,9.80
2022-12-31T02:35:38.316Z,9.90
2022-12-31T02:38:09.822Z,9.90
2022-12-31T02:40:39.380Z,10.00
2022-12-31T02:43:07.292Z,10.10
2022-12-31T02:45:41.423Z,10.10
2022-12-31T02:48:33.803Z,10.10
2022-12-31T02:51:13.250Z,10.10
2022-12-31T02:53:56.436Z,10.20
2022-12-31T02:56:28.806Z,10.30
2022-12-31T02:59:21.862Z,10.30
2022-12-31T03:02:14.088Z,10.40
2022-12-31T03:04:43.440Z,10.50
2022-12-31T03:07:14.443Z,10.60
2022-12-31T03:09:42.336Z,10.60
2022-12-31T03:12:29.826Z,10.70
2022-12-31T03:14:57.574Z,10.70
2022-12-31T03:17:26.928Z,10.70
2022-12-31T03:20:12.212Z,10.70
2022-12-31T03:22:43.388Z,10.80
2022-12-31T03:25:31.777Z,10.80
2022-12-31T03:27:59.996Z,10.80
2022-12-31T03:30:28.563Z,10.90
2022-12-31T03:32:58.091Z,10.90
2022-12-31T03:35:27.761Z,10.90
2022-12-31T03:37:56.420Z,10.90
2022-12-31T03:40:26.858Z,11.00
2022-12-31T03:42:54.629Z,10.90
2022-12-31T03:45:22.776Z,11.00
2022-12-31T03:47:51.282Z,11.10
2022-12-31T03:50:21.081Z,11.10
2022-12-31T03:52:49.113Z,11.10
2022-12-31T03:55:16.849Z,11.10
2022-12-31T03:57:44.597Z,11.10
2022-12-31T04:00:15.756Z,11.20
2022-12-31T04:02:43.701Z,11.10
2022-12-31T04:05:11.740Z,11.10
2022-12-31T04:07:41.449Z,11.10
2022-12-31T04:10:12.048Z,11.10
2022-12-31T04:12:40.149Z,11.10
2022-12-31T04:15:09.523Z,11.20
2022-12-31T04:17:37.366Z,11.20
2022-12-31T04:20:05.557Z,11.30
2022-12-31T04:22:33.308Z,11.30
2022-12-31T04:25:02.415Z,11.30
2022-12-31T04:27:30.141Z,11.40
2022-12-31T04:29:57.858Z,11.40
2022-12-31T04:32:25.588Z,11.50
2022-12-31T04:34:53.298Z,11.50
2022-12-31T04:37:21.019Z,11.50
2022-12-31T04:39:48.751Z,11.60
2022-12-31T04:42:18.014Z,11.60
2022-12-31T04:44:45.709Z,11.70
2022-12-31T04:47:15.294Z,11.80
2022-12-31T04:49:46.413Z,11.70
2022-12-31T04:52:14.149Z,11.70
2022-12-31T04:54:41.983Z,11.80
2022-12-31T04:57:09.747Z,11.80
2022-12-31T04:59:38.807Z,11.90
2022-12-31T05:02:06.861Z,11.90
2022-12-31T05:04:34.753Z,11.90
2022-12-31T05:07:02.469Z,11.90
2022-12-31T05:09:31.008Z,12.00
2022-12-31T05:11:58.914Z,12.00
2022-12-31T05:14:27.525Z,12.10
2022-12-31T05:16:58.288Z,12.20
2022-12-31T05:19:26.093Z,12.10
2022-12-31T05:22:07.812Z,12.00
2022-12-31T05:24:35.621Z,11.90
2022-12-31T05:27:03.595Z,11.80
2022-12-31T05:29:31.373Z,11.70
2022-12-31T05:32:00.462Z,11.70
2022-12-31T05:34:28.159Z,11.70
2022-12-31T05:36:55.984Z,11.70
2022-12-31T05:39:23.717Z,11.80
2022-12-31T05:41:51.452Z,11.80
2022-12-31T05:44:19.197Z,11.90
2022-12-31T05:46:47.030Z,11.90
2022-12-31T05:49:16.240Z,11.90
2022-12-31T05:51:44.066Z,11.80
2022-12-31T05:54:11.819Z,11.90
2022-12-31T05:56:39.584Z,12.00
2022-12-31T05:59:07.370Z,12.00
2022-12-31T06:01:35.193Z,12.10
2022-12-31T06:04:03.016Z,12.10
2022-12-31T06:06:32.118Z,12.20
2022-12-31T06:08:59.889Z,12.30
2022-12-31T06:11:27.630Z,12.20
2022-12-31T06:13:55.354Z,12.30
2022-12-31T06:16:23.070Z,12.30
2022-12-31T06:18:51.213Z,12.30
2022-12-31T06:21:19.222Z,12.30
2022-12-31T06:23:48.568Z,12.30
2022-12-31T06:26:16.722Z,12.40
2022-12-31T06:28:44.451Z,12.40
2022-12-31T06:31:14.061Z,12.40
2022-12-31T06:33:42.200Z,12.60
2022-12-31T06:36:13.301Z,12.60
2022-12-31T06:38:42.136Z,12.70
2022-12-31T06:41:13.112Z,12.90
2022-12-31T06:43:42.239Z,13.00
2022-12-31T06:46:12.274Z,13.10
2022-12-31T06:48:41.911Z,13.10
2022-12-31T06:51:16.727Z,13.20
2022-12-31T06:53:45.259Z,13.20
2022-12-31T06:56:17.567Z,13.30
2022-12-31T06:58:46.265Z,13.40
2022-12-31T07:01:37.902Z,13.40
2022-12-31T07:04:32.954Z,13.50
2022-12-31T07:07:08.905Z,13.60
2022-12-31T07:09:43.389Z,13.60
2022-12-31T07:12:21.194Z,13.60
2022-12-31T07:14:55.027Z,13.50
2022-12-31T07:17:32.586Z,13.60
2022-12-31T07:20:04.484Z,13.60
2022-12-31T07:22:32.695Z,13.70
2022-12-31T07:25:01.306Z,13.80
2022-12-31T07:27:45.128Z,13.90
2022-12-31T07:30:16.356Z,13.90
2022-12-31T07:33:12.441Z,13.90
2022-12-31T07:35:49.495Z,13.90
2022-12-31T07:38:25.428Z,13.90
2022-12-31T07:41:09.431Z,14.00
2022-12-31T07:43:57.175Z,14.00
2022-12-31T07:46:34.381Z,14.10
2022-12-31T07:49:02.954Z,14.10
2022-12-31T07:51:31.348Z,14.10
2022-12-31T07:53:59.092Z,14.10
2022-12-31T07:56:26.817Z,14.10
2022-12-31T07:59:04.606Z,14.20
2022-12-31T08:01:40.580Z,14.20
2022-12-31T08:04:16.648Z,14.20
2022-12-31T08:06:54.394Z,14.30
2022-12-31T08:09:36.590Z,14.30
2022-12-31T08:12:04.844Z,14.40
2022-12-31T08:14:41.314Z,14.50
2022-12-31T08:17:12.577Z,14.50
2022-12-31T08:19:41.077Z,14.50
2022-12-31T08:22:30.003Z,14.60
2022-12-31T08:25:13.664Z,14.60
2022-12-31T08:27:49.620Z,14.70
2022-12-31T08:30:21.540Z,14.70
2022-12-31T08:32:56.502Z,14.70
2022-12-31T08:35:34.509Z,14.70
2022-12-31T08:38:10.719Z,14.70
2022-12-31T08:40:53.215Z,14.80
2022-12-31T08:43:33.942Z,14.80
2022-12-31T08:46:06.009Z,14.80
2022-12-31T08:48:39.578Z,14.80
2022-12-31T08:51:13.749Z,14.80
2022-12-31T08:53:42.171Z,14.80
2022-12-31T08:56:18.044Z,14.90
2022-12-31T08:58:53.458Z,14.90
2022-12-31T09:01:28.249Z,15.00
2022-12-31T09:04:15.448Z,15.00
2022-12-31T09:06:49.756Z,15.00
2022-12-31T09:09:25.953Z,15.10
2022-12-31T09:12:04.184Z,15.10
2022-12-31T09:14:42.801Z,15.20
2022-12-31T09:17:26.904Z,15.20
2022-12-31T09:19:55.251Z,15.30
2022-12-31T09:22:23.512Z,15.30
2022-12-31T09:24:51.977Z,15.30
2022-12-31T09:27:27.883Z,15.30
2022-12-31T09:30:03.669Z,15.40
2022-12-31T09:32:42.845Z,15.40
2022-12-31T09:35:20.317Z,15.40
2022-12-31T09:37:49.924Z,15.40
2022-12-31T09:41:12.458Z,15.50
2022-12-31T09:44:19.339Z,15.60
2022-12-31T09:47:31.664Z,15.70
2022-12-31T09:50:37.696Z,15.80
2022-12-31T09:53:27.952Z,15.80
2022-12-31T09:56:02.069Z,15.80
2022-12-31T09:58:42.420Z,15.80
2022-12-31T10:01:22.512Z,15.80
2022-12-31T10:04:12.839Z,16.00
2022-12-31T10:06:52.178Z,16.20
2022-12-31T10:09:37.859Z,16.30
2022-12-31T10:12:28.115Z,16.20
2022-12-31T10:15:14.388Z,16.20
2022-12-31T10:17:54.508Z,16.20
2022-12-31T10:20:44.910Z,16.10
2022-12-31T10:23:31.338Z,16.10
2022-12-31T10:26:28.007Z,16.10
2022-12-31T10:29:00.592Z,16.10
2022-12-31T10:31:41.277Z,16.30
2022-12-31T10:34:16.536Z,16.40
2022-12-31T10:36:54.269Z,16.60
2022-12-31T10:39:36.303Z,16.70
2022-12-31T10:42:49.151Z,16.70
2022-12-31T10:45:40.806Z,16.70
2022-12-31T10:48:50.348Z,16.60
2022-12-31T10:51:53.773Z,16.50
2022-12-31T10:54:51.828Z,16.50
2022-12-31T10:58:01.877Z,16.40
2022-12-31T11:00:39.413Z,16.40
2022-12-31T11:03:48.515Z,16.50
2022-12-31T11:06:58.302Z,16.60
2022-12-31T11:09:57.624Z,16.80
2022-12-31T11:12:48.533Z,16.70
2022-12-31T11:15:35.850Z,16.80
2022-12-31T11:18:11.204Z,16.90
2022-12-31T11:21:00.259Z,17.00
2022-12-31T11:23:37.954Z,17.00
2022-12-31T11:26:16.607Z,17.10
2022-12-31T11:29:11.809Z,17.20
2022-12-31T11:31:59.022Z,17.40
2022-12-31T11:34:50.337Z,17.50
2022-12-31T11:37:32.270Z,17.60
2022-12-31T11:40:15.322Z,18.00
2022-12-31T11:42:52.515Z,18.00
2022-12-31T11:45:35.656Z,17.80
2022-12-31T11:48:30.114Z,17.70
2022-12-31T11:51:11.271Z,17.50
2022-12-31T11:53:57.582Z,17.40
2022-12-31T11:56:29.205Z,17.20
2022-12-31T11:58:58.876Z,17.10
2022-12-31T12:01:33.190Z,17.10
2022-12-31T12:04:02.043Z,17.10
2022-12-31T12:06:31.924Z,17.20
2022-12-31T12:09:03.929Z,17.10
2022-12-31T12:11:35.183Z,17.10
2022-12-31T12:14:20.206Z,17.10
2022-12-31T12:16:48.139Z,17.20
2022-12-31T12:19:19.348Z,17.20
2022-12-31T12:21:48.054Z,17.40
2022-12-31T12:24:22.088Z,17.40
2022-12-31T12:26:50.430Z,17.50
2022-12-31T12:29:21.502Z,17.50
2022-12-31T12:31:56.896Z,17.60
2022-12-31T12:34:27.683Z,17.50
2022-12-31T12:36:55.666Z,17.40
2022-12-31T12:39:25.878Z,17.40
2022-12-31T12:42:04.977Z,17.40
2022-12-31T12:44:35.858Z,17.40
2022-12-31T12:47:06.089Z,17.40
2022-12-31T12:49:40.496Z,17.40
2022-12-31T12:52:33.631Z,17.40
2022-12-31T12:55:14.638Z,17.40
2022-12-31T12:57:49.724Z,17.30
2022-12-31T13:00:21.474Z,17.30
2022-12-31T13:03:17.653Z,17.30
2022-12-31T13:05:53.961Z,17.30
2022-12-31T13:08:34.290Z,17.30
2022-12-31T13:11:16.031Z,17.30
2022-12-31T13:13:50.002Z,17.30
2022-12-31T13:16:26.375Z,17.30
2022-12-31T13:18:59.612Z,17.30
2022-12-31T13:21:42.682Z,17.20
2022-12-31T13:24:19.822Z,17.20
2022-12-31T13:26:55.098Z,17.20
2022-12-31T13:29:25.792Z,17.20
2022-12-31T13:31:56.998Z,17.10
2022-12-31T13:34:29.542Z,17.10
2022-12-31T13:37:01.434Z,17.20
2022-12-31T13:39:31.173Z,17.20
2022-12-31T13:42:03.494Z,17.30
2022-12-31T13:44:36.036Z,17.30
2022-12-31T13:47:11.126Z,17.30
2022-12-31T13:49:44.617Z,17.30
2022-12-31T13:52:25.407Z,17.20
2022-12-31T13:55:00.564Z,17.20
2022-12-31T13:57:42.580Z,17.20
2022-12-31T14:00:22.942Z,17.20
2022-12-31T14:03:01.129Z,17.20
2022-12-31T14:05:35.233Z,17.20
2022-12-31T14:08:05.761Z,17.20
2022-12-31T14:10:49.817Z,17.10
2022-12-31T14:13:46.256Z,17.10
2022-12-31T14:16:23.306Z,17.00
2022-12-31T14:19:00.704Z,17.00
2022-12-31T14:21:31.786Z,17.10
2022-12-31T14:24:06.581Z,17.10
2022-12-31T14:26:38.161Z,17.00
2022-12-31T14:29:19.003Z,17.00
2022-12-31T14:32:17.251Z,16.90
2022-12-31T14:34:54.112Z,16.90
2022-12-31T14:37:31.829Z,16.80
2022-12-31T14:40:07.257Z,16.70
2022-12-31T14:42:41.956Z,16.60
2022-12-31T14:45:22.969Z,16.60
2022-12-31T14:47:56.835Z,16.50
2022-12-31T14:50:28.003Z,16.40
2022-12-31T14:53:07.174Z,16.30
2022-12-31T14:55:35.936Z,16.20
2022-12-31T14:58:28.611Z,16.10
2022-12-31T15:00:58.974Z,16.10
2022-12-31T15:03:37.905Z,16.00
2022-12-31T15:06:36.203Z,16.20
2022-12-31T15:09:13.113Z,16.20
2022-12-31T15:12:00.259Z,16.20
2022-12-31T15:15:00.787Z,16.20
2022-12-31T15:17:40.150Z,16.20
2022-12-31T15:20:45.126Z,16.20
2022-12-31T15:23:22.685Z,16.20
2022-12-31T15:25:55.607Z,16.10
2022-12-31T15:28:33.778Z,16.10
2022-12-31T15:31:09.966Z,16.10
2022-12-31T15:33:43.036Z,16.20
2022-12-31T15:36:16.769Z,16.30
2022-12-31T15:38:46.865Z,16.40
2022-12-31T15:41:27.640Z,16.40
2022-12-31T15:43:59.249Z,16.40
2022-12-31T15:46:31.719Z,16.40
2022-12-31T15:49:06.833Z,16.40
2022-12-31T15:51:44.712Z,16.30
2022-12-31T15:54:24.841Z,16.30
2022-12-31T15:56:54.266Z,16.30
2022-12-31T15:59:23.144Z,16.30
2022-12-31T16:01:51.243Z,16.30
2022-12-31T16:04:21.265Z,16.30
2022-12-31T16:06:51.122Z,16.30
2022-12-31T16:09:26.482Z,16.30
2022-12-31T16:11:55.757Z,16.40
2022-12-31T16:14:26.539Z,16.40
2022-12-31T16:16:56.874Z,16.50
2022-12-31T16:19:30.712Z,16.70
2022-12-31T16:22:01.803Z,16.70
2022-12-31T16:24:32.581Z,16.80
2022-12-31T16:27:03.986Z,16.80
2022-12-31T16:29:32.217Z,16.80
2022-12-31T16:32:00.113Z,16.90
2022-12-31T16:34:29.165Z,16.90
2022-12-31T16:36:59.479Z,16.90
2022-12-31T16:39:31.768Z,16.90
2022-12-31T16:42:19.931Z,17.00
2022-12-31T16:44:48.119Z,17.00
2022-12-31T16:47:21.354Z,17.00
2022-12-31T16:49:51.915Z,17.10
2022-12-31T16:52:29.590Z,17.10
2022-12-31T16:54:59.744Z,17.10
2022-12-31T16:57:32.419Z,17.20
2022-12-31T17:00:02.252Z,17.10
2022-12-31T17:02:37.880Z,17.20
2022-12-31T17:05:18.173Z,17.30
2022-12-31T17:07:46.209Z,17.20
2022-12-31T17:10:20.659Z,17.20
2022-12-31T17:13:26.947Z,17.10
2022-12-31T17:15:44.019Z,17.20
2022-12-31T17:18:18.379Z,17.30
2022-12-31T17:20:46.575Z,17.30
2022-12-31T17:23:24.597Z,17.20
2022-12-31T17:26:01.540Z,17.20
2022-12-31T17:28:37.815Z,17.20
2022-12-31T17:31:27.308Z,17.10
2022-12-31T17:34:04.802Z,17.10
2022-12-31T17:36:32.704Z,17.10
2022-12-31T17:39:17.363Z,17.00
2022-12-31T17:41:48.924Z,16.90
2022-12-31T17:44:20.894Z,16.90
2022-12-31T17:46:49.531Z,16.80
2022-12-31T17:49:17.425Z,16.80
2022-12-31T17:51:47.748Z,16.70
2022-12-31T17:54:16.773Z,16.60
2022-12-31T17:56:46.413Z,16.50
2022-12-31T17:59:17.769Z,16.40
2022-12-31T18:01:45.906Z,16.40
2022-12-31T18:04:14.726Z,16.30
2022-12-31T18:06:43.022Z,16.30
2022-12-31T18:09:11.575Z,16.30
2022-12-31T18:11:41.164Z,16.30
2022-12-31T18:14:14.511Z,16.20
2022-12-31T18:16:42.575Z,16.10
2022-12-31T18:19:37.943Z,16.10
2022-12-31T18:22:02.489Z,16.00
2022-12-31T18:24:30.342Z,16.00
2022-12-31T18:26:58.069Z,15.90
2022-12-31T18:29:27.094Z,15.90
2022-12-31T18:31:55.049Z,15.80
2022-12-31T18:34:23.026Z,15.80
2022-12-31T18:36:50.789Z,15.80
2022-12-31T18:39:18.675Z,15.80
2022-12-31T18:41:49.733Z,15.70
2022-12-31T18:44:18.511Z,15.60
2022-12-31T18:46:47.687Z,15.60
2022-12-31T18:49:15.422Z,15.60
2022-12-31T18:51:43.273Z,15.60
2022-12-31T18:54:12.085Z,15.60
2022-12-31T18:56:46.508Z,15.70
2022-12-31T18:59:15.529Z,15.70
2022-12-31T19:01:43.475Z,15.70
2022-12-31T19:04:21.261Z,15.60
2022-12-31T19:06:52.691Z,15.70
2022-12-31T19:09:43.936Z,15.70
2022-12-31T19:12:11.074Z,15.70
2022-12-31T19:14:38.808Z,15.70
2022-12-31T19:19:35.001Z,15.60
2022-12-31T19:22:03.197Z,15.60
2022-12-31T19:24:30.921Z,15.70
2022-12-31T19:26:58.708Z,15.70
2022-12-31T19:29:27.899Z,15.80
2022-12-31T19:31:55.985Z,15.80
2022-12-31T19:34:23.779Z,15.80
2022-12-31T19:36:52.874Z,15.80
2022-12-31T19:39:22.353Z,15.80
2022-12-31T19:41:56.396Z,15.70
2022-12-31T19:44:26.776Z,15.60
2022-12-31T19:46:54.981Z,15.60
2022-12-31T19:49:22.787Z,15.50
2022-12-31T19:51:51.903Z,15.50
2022-12-31T19:54:19.707Z,15.40
2022-12-31T19:56:47.524Z,15.40
2022-12-31T19:59:15.288Z,15.30
2022-12-31T20:01:43.343Z,15.40
2022-12-31T20:04:11.099Z,15.40
2022-12-31T20:06:38.869Z,15.30
2022-12-31T20:09:08.037Z,15.40
2022-12-31T20:11:36.043Z,15.40
2022-12-31T20:14:03.871Z,15.40
2022-12-31T20:16:33.754Z,15.40
2022-12-31T20:19:01.668Z,15.40
2022-12-31T20:21:30.216Z,15.40
2022-12-31T20:23:58.136Z,15.30
2022-12-31T20:26:27.614Z,15.30
2022-12-31T20:28:55.516Z,15.30
2022-12-31T20:31:25.307Z,15.30
2022-12-31T20:33:54.211Z,15.30
2022-12-31T20:36:22.226Z,15.40
2022-12-31T20:38:50.104Z,15.40
2022-12-31T20:41:20.079Z,15.40
2022-12-31T20:43:50.039Z,15.50
2022-12-31T20:46:19.874Z,15.50
2022-12-31T20:48:48.996Z,15.50
2022-12-31T20:51:18.162Z,15.60
2022-12-31T20:53:47.897Z,15.60
2022-12-31T20:56:16.234Z,15.60
2022-12-31T20:58:44.251Z,15.60
2022-12-31T21:01:13.805Z,15.50
2022-12-31T21:06:32.807Z,15.50
2022-12-31T21:09:02.301Z,15.30
2022-12-31T21:11:47.756Z,15.30
2022-12-31T21:14:15.823Z,15.30
2022-12-31T21:16:44.959Z,15.30
2022-12-31T21:19:12.881Z,15.30
2022-12-31T21:21:40.871Z,15.30
2022-12-31T21:24:09.022Z,15.30
2022-12-31T21:26:36.916Z,15.30
2022-12-31T21:29:04.709Z,15.30
2022-12-31T21:31:32.586Z,15.40
2022-12-31T21:34:01.848Z,15.40
2022-12-31T21:36:29.569Z,15.50
2022-12-31T21:38:57.380Z,15.50
2022-12-31T21:41:42.730Z,15.50
2022-12-31T21:44:10.488Z,15.50
2022-12-31T21:46:38.322Z,15.50
2022-12-31T21:49:07.435Z,15.50
2022-12-31T21:51:55.703Z,15.50
2022-12-31T21:54:37.582Z,15.50
2022-12-31T21:57:06.503Z,15.50
2022-12-31T22:00:09.301Z,15.40
2022-12-31T22:03:00.017Z,15.40
2022-12-31T22:05:29.207Z,15.40
2022-12-31T22:07:56.956Z,15.40
2022-12-31T22:10:24.709Z,15.40
2022-12-31T22:12:52.495Z,15.50
2022-12-31T22:15:20.289Z,15.50
2022-12-31T22:17:48.143Z,15.50
2022-12-31T22:20:31.399Z,15.40
2022-12-31T22:23:00.592Z,15.50
2022-12-31T22:25:28.307Z,15.50
2022-12-31T22:28:36.085Z,15.60
2022-12-31T22:30:43.742Z,15.50
2022-12-31T22:33:11.468Z,15.40
2022-12-31T22:35:39.183Z,15.30
2022-12-31T22:38:12.090Z,15.40
2022-12-31T22:40:40.286Z,15.40
2022-12-31T22:43:08.197Z,15.40
2022-12-31T22:45:37.526Z,15.50
2022-12-31T22:48:05.771Z,15.60
2022-12-31T22:50:33.540Z,15.60
2022-12-31T22:53:01.280Z,15.50
2022-12-31T22:55:30.361Z,15.40
2022-12-31T22:57:58.208Z,15.30
2022-12-31T23:00:39.357Z,15.30
2022-12-31T23:03:07.919Z,15.30
2022-12-31T23:05:36.753Z,15.30
2022-12-31T23:08:11.861Z,15.30
2022-12-31T23:11:00.797Z,15.40
2022-12-31T23:13:50.657Z,15.40
2022-12-31T23:16:37.310Z,15.30
2022-12-31T23:19:23.157Z,15.20
2022-12-31T23:22:08.557Z,15.30
2022-12-31T23:24:36.542Z,15.30
2022-12-31T23:27:06.152Z,15.30
2022-12-31T23:29:34.113Z,15.30
2022-12-31T23:32:01.856Z,15.30
2022-12-31T23:34:29.670Z,15.30
2022-12-31T23:36:57.403Z,15.30
2022-12-31T23:39:25.121Z,15.40
2022-12-31T23:41:52.905Z,15.30
2022-12-31T23:44:22.083Z,15.30
2022-12-31T23:46:49.815Z,15.30
2022-12-31T23:49:17.595Z,15.30
2022-12-31T23:51:45.803Z,15.30
2022-12-31T23:54:14.768Z,15.40
2022-12-31T23:56:42.718Z,15.40
2022-12-31T23:59:12.575Z,15.40
